Verboort, Oregon
Current Conditions -  °F | °C
As of 1:53 AM on Sunday 23 Nov 2014 (Local Time) from KHIO Reporting Station
Haze Haze  
Wind Chill: 52°   Ceiling: Unl
Heat Index: 52°   Visibility: 5mi
Dew Point: 38°   Wind: 6mph
Humidity: 59%   Direction: 340°NNW
Pressure: 30.27"   Gusts: NA
Location:  45.6684°N, 123.34°W
Report Text: KHIO 230953Z AUTO 34005KT 5SM HZ FEW065 11/03 A3027 RMK AO2 RAE00 SLP249 P0000 T01110033
Loading
Personal Weather Stations






























Interactive Weather Map New forecast layout! Learn more

10-Day Weather Forecast

Advertisements
Track Severe Weather on mobile